createdAt,value
2023-01-21T00:00:14.361Z,-0.56
2023-01-21T00:02:43.272Z,-0.56
2023-01-21T00:05:13.547Z,-0.63
2023-01-21T00:07:42.345Z,-0.53
2023-01-21T00:10:11.797Z,-0.82
2023-01-21T00:12:40.597Z,-0.65
2023-01-21T00:15:11.595Z,-0.57
2023-01-21T00:17:40.327Z,-0.59
2023-01-21T00:20:10.163Z,-0.68
2023-01-21T00:22:38.919Z,-0.72
2023-01-21T00:25:08.923Z,-0.67
2023-01-21T00:27:37.856Z,-0.61
2023-01-21T00:30:07.753Z,-0.69
2023-01-21T00:32:38.146Z,-0.79
2023-01-21T00:35:08.593Z,-0.73
2023-01-21T00:37:37.441Z,-0.74
2023-01-21T00:40:08.196Z,-1.05
2023-01-21T00:42:37.005Z,-0.71
2023-01-21T00:45:06.487Z,-0.71
2023-01-21T00:47:35.238Z,-0.79
2023-01-21T00:50:06.281Z,-0.78
2023-01-21T00:52:35.051Z,-0.56
2023-01-21T00:55:03.773Z,-0.62
2023-01-21T00:57:32.683Z,-0.58
2023-01-21T01:00:01.343Z,-0.53
2023-01-21T01:02:30.077Z,-0.56
2023-01-21T01:04:58.746Z,-0.59
2023-01-21T01:07:28.655Z,-0.56
2023-01-21T01:09:57.103Z,-0.42
2023-01-21T01:12:25.857Z,-0.44
2023-01-21T01:14:54.320Z,-0.53
2023-01-21T01:17:22.960Z,-0.51
2023-01-21T01:19:51.710Z,-0.56
2023-01-21T01:22:20.445Z,-0.56
2023-01-21T01:24:50.242Z,-0.66
2023-01-21T01:27:18.789Z,-0.37
2023-01-21T01:29:47.560Z,-0.43
2023-01-21T01:32:16.279Z,-0.39
2023-01-21T01:34:45.064Z,-0.43
2023-01-21T01:37:13.858Z,-0.35
2023-01-21T01:39:42.535Z,-0.41
2023-01-21T01:42:15.928Z,-0.39
2023-01-21T01:45:01.114Z,-0.50
2023-01-21T01:47:37.245Z,-0.26
2023-01-21T01:50:10.375Z,-0.31
2023-01-21T01:52:40.075Z,-0.30
2023-01-21T01:55:11.947Z,-0.19
2023-01-21T01:57:49.086Z,-0.22
2023-01-21T02:00:19.396Z,-0.41
2023-01-21T02:03:09.011Z,-0.89
2023-01-21T02:05:40.750Z,-0.49
2023-01-21T02:08:10.211Z,-0.48
2023-01-21T02:10:38.903Z,-0.58
2023-01-21T02:13:08.894Z,-0.91
2023-01-21T02:15:58.240Z,-0.62
2023-01-21T02:18:39.562Z,-0.54
2023-01-21T02:22:04.007Z,-0.57
2023-01-21T02:25:32.700Z,-0.64
2023-01-21T02:29:00.759Z,-0.41
2023-01-21T02:32:18.973Z,-0.62
2023-01-21T02:34:58.716Z,-0.53
2023-01-21T02:37:39.446Z,-0.50
2023-01-21T02:40:16.977Z,-0.49
2023-01-21T02:42:48.782Z,-1.02
2023-01-21T02:45:28.245Z,-0.59
2023-01-21T02:48:06.209Z,-0.71
2023-01-21T02:50:43.600Z,-0.56
2023-01-21T02:53:26.650Z,-0.35
2023-01-21T02:55:56.222Z,-0.25
2023-01-21T02:58:30.104Z,-0.85
2023-01-21T03:01:15.843Z,-0.82
2023-01-21T03:04:26.999Z,-0.51
2023-01-21T03:07:10.082Z,-0.63
2023-01-21T03:09:39.003Z,-0.64
2023-01-21T03:12:31.036Z,-0.60
2023-01-21T03:15:25.737Z,-0.60
2023-01-21T03:18:02.446Z,-0.67
2023-01-21T03:20:36.970Z,-0.72
2023-01-21T03:23:11.616Z,-0.76
2023-01-21T03:25:42.619Z,-0.84
2023-01-21T03:28:18.812Z,-0.84
2023-01-21T03:30:55.583Z,-1.39
2023-01-21T03:33:26.296Z,-0.99
2023-01-21T03:35:59.061Z,-0.87
2023-01-21T03:38:37.972Z,-0.74
2023-01-21T03:41:15.429Z,-0.73
2023-01-21T03:43:44.397Z,-0.76
2023-01-21T03:46:19.189Z,-0.74
2023-01-21T03:48:53.943Z,-0.66
2023-01-21T03:51:30.475Z,-0.56
2023-01-21T03:54:01.409Z,-0.43
2023-01-21T03:56:30.361Z,-0.51
2023-01-21T03:58:59.075Z,-0.56
2023-01-21T04:01:27.516Z,-0.54
2023-01-21T04:03:55.951Z,-0.85
2023-01-21T04:06:25.055Z,-0.49
2023-01-21T04:08:53.724Z,-0.53
2023-01-21T04:11:23.626Z,-0.80
2023-01-21T04:13:52.104Z,-0.56
2023-01-21T04:16:20.825Z,-0.61
2023-01-21T04:18:49.590Z,-0.42
2023-01-21T04:21:18.284Z,-0.42
2023-01-21T04:23:49.166Z,-0.46
2023-01-21T04:26:18.016Z,-0.44
2023-01-21T04:28:47.776Z,-0.45
2023-01-21T04:31:16.356Z,-0.30
2023-01-21T04:33:44.758Z,-0.66
2023-01-21T04:36:14.713Z,-0.34
2023-01-21T04:38:43.314Z,-0.36
2023-01-21T04:41:11.680Z,-0.45
2023-01-21T04:43:40.289Z,-0.47
2023-01-21T04:46:10.078Z,-0.46
2023-01-21T04:48:38.543Z,-0.42
2023-01-21T04:51:08.047Z,-0.29
2023-01-21T04:53:36.736Z,-0.26
2023-01-21T04:56:05.693Z,-0.22
2023-01-21T04:58:34.519Z,-0.34
2023-01-21T05:01:02.978Z,-0.30
2023-01-21T05:03:32.825Z,-0.33
2023-01-21T05:06:01.197Z,-0.09
2023-01-21T05:08:29.748Z,-0.26
2023-01-21T05:10:58.119Z,-0.23
2023-01-21T05:13:26.566Z,-0.14
2023-01-21T05:15:55.102Z,-0.11
2023-01-21T05:18:23.507Z,-0.08
2023-01-21T05:20:54.779Z,-0.19
2023-01-21T05:23:25.776Z,-0.26
2023-01-21T05:26:00.771Z,-0.04
2023-01-21T05:28:30.962Z,-0.02
2023-01-21T05:31:05.137Z,-0.12
2023-01-21T05:33:37.296Z,-0.87
2023-01-21T05:36:11.780Z,-0.28
2023-01-21T05:38:40.629Z,-0.28
2023-01-21T05:41:13.850Z,-0.26
2023-01-21T05:43:42.315Z,-0.28
2023-01-21T05:46:18.090Z,-1.44
2023-01-21T05:48:48.090Z,-0.21
2023-01-21T05:51:21.996Z,-0.22
2023-01-21T05:53:50.449Z,-0.34
2023-01-21T05:56:19.151Z,-0.29
2023-01-21T05:58:48.022Z,-0.29
2023-01-21T06:01:16.409Z,-0.62
2023-01-21T06:03:44.896Z,-0.21
2023-01-21T06:06:15.777Z,-0.34
2023-01-21T06:08:45.878Z,-0.21
2023-01-21T06:11:14.315Z,-0.37
2023-01-21T06:13:42.778Z,-0.16
2023-01-21T06:16:11.299Z,0.00
2023-01-21T06:18:39.776Z,-0.35
2023-01-21T06:21:08.194Z,-0.01
2023-01-21T06:23:37.172Z,-0.02
2023-01-21T06:26:07.248Z,-0.01
2023-01-21T06:28:36.063Z,0.06
2023-01-21T06:31:04.815Z,-0.02
2023-01-21T06:33:35.308Z,-0.26
2023-01-21T06:36:03.834Z,0.17
2023-01-21T06:38:35.952Z,0.23
2023-01-21T06:41:06.379Z,0.22
2023-01-21T06:43:36.822Z,0.18
2023-01-21T06:46:05.718Z,-0.14
2023-01-21T06:48:35.943Z,0.15
2023-01-21T06:51:05.287Z,0.14
2023-01-21T06:53:41.320Z,0.22
2023-01-21T06:56:11.166Z,-0.19
2023-01-21T06:58:39.642Z,0.19
2023-01-21T07:01:08.317Z,0.09
2023-01-21T07:03:36.762Z,0.20
2023-01-21T07:06:05.557Z,0.14
2023-01-21T07:08:34.069Z,-0.49
2023-01-21T07:11:03.078Z,-0.22
2023-01-21T07:13:32.989Z,-0.03
2023-01-21T07:16:02.325Z,-0.09
2023-01-21T07:18:30.913Z,-0.12
2023-01-21T07:20:59.536Z,-0.07
2023-01-21T07:23:30.061Z,-0.06
2023-01-21T07:25:58.537Z,-0.08
2023-01-21T07:28:27.066Z,0.12
2023-01-21T07:30:59.524Z,-0.68
2023-01-21T07:33:28.754Z,0.14
2023-01-21T07:35:57.212Z,0.12
2023-01-21T07:38:25.721Z,0.12
2023-01-21T07:40:54.176Z,0.24
2023-01-21T07:43:22.543Z,0.16
2023-01-21T07:45:51.221Z,-0.05
2023-01-21T07:48:20.954Z,0.16
2023-01-21T07:50:49.655Z,-0.01
2023-01-21T07:53:18.142Z,0.27
2023-01-21T07:55:46.686Z,0.04
2023-01-21T07:58:15.068Z,0.25
2023-01-21T08:00:43.753Z,0.13
2023-01-21T08:03:12.235Z,0.26
2023-01-21T08:05:42.106Z,0.40
2023-01-21T08:08:10.541Z,0.51
2023-01-21T08:10:38.898Z,0.49
2023-01-21T08:13:08.271Z,0.40
2023-01-21T08:15:36.788Z,0.48
2023-01-21T08:18:05.458Z,0.27
2023-01-21T08:20:34.122Z,0.64
2023-01-21T08:23:06.447Z,0.31
2023-01-21T08:25:35.036Z,0.62
2023-01-21T08:28:03.379Z,0.60
2023-01-21T08:30:32.244Z,0.55
2023-01-21T08:33:00.680Z,0.82
2023-01-21T08:35:29.191Z,0.83
2023-01-21T08:37:58.425Z,0.26
2023-01-21T08:40:30.590Z,0.98
2023-01-21T08:43:03.389Z,0.32
2023-01-21T08:45:32.158Z,1.05
2023-01-21T08:48:03.906Z,0.94
2023-01-21T08:50:33.964Z,0.14
2023-01-21T08:53:02.555Z,0.85
2023-01-21T08:55:32.399Z,0.89
2023-01-21T08:58:00.905Z,0.99
2023-01-21T09:00:29.671Z,1.10
2023-01-21T09:02:59.924Z,0.98
2023-01-21T09:05:28.396Z,0.71
2023-01-21T09:07:58.167Z,0.55
2023-01-21T09:10:44.228Z,0.96
2023-01-21T09:13:16.275Z,0.58
2023-01-21T09:15:45.597Z,0.31
2023-01-21T09:18:14.098Z,1.11
2023-01-21T09:20:42.823Z,0.71
2023-01-21T09:23:27.492Z,1.23
2023-01-21T09:26:02.722Z,1.41
2023-01-21T09:28:37.167Z,1.60
2023-01-21T09:31:09.184Z,1.47
2023-01-21T09:33:41.301Z,1.55
2023-01-21T09:36:14.612Z,1.76
2023-01-21T09:38:43.931Z,1.60
2023-01-21T09:41:27.224Z,1.71
2023-01-21T09:44:17.502Z,1.74
2023-01-21T09:46:55.931Z,1.52
2023-01-21T09:49:29.786Z,1.52
2023-01-21T09:52:15.292Z,1.91
2023-01-21T09:54:43.863Z,2.07
2023-01-21T09:58:00.557Z,2.12
2023-01-21T10:00:41.894Z,2.09
2023-01-21T10:03:27.060Z,2.10
2023-01-21T10:06:35.176Z,2.21
2023-01-21T10:09:48.802Z,2.03
2023-01-21T10:12:34.875Z,2.50
2023-01-21T10:15:37.618Z,2.24
2023-01-21T10:18:13.888Z,2.47
2023-01-21T10:20:52.162Z,2.04
2023-01-21T10:23:38.885Z,2.28
2023-01-21T10:26:12.371Z,2.32
2023-01-21T10:28:48.863Z,2.86
2023-01-21T10:31:25.206Z,3.04
2023-01-21T10:33:58.079Z,2.64
2023-01-21T10:36:51.621Z,3.16
2023-01-21T10:39:35.927Z,2.99
2023-01-21T10:42:26.828Z,2.97
2023-01-21T10:45:05.837Z,2.84
2023-01-21T10:47:50.162Z,2.06
2023-01-21T10:50:35.614Z,3.01
2023-01-21T10:53:19.107Z,2.40
2023-01-21T10:56:07.053Z,2.65
2023-01-21T10:58:43.097Z,2.92
2023-01-21T11:01:23.084Z,3.17
2023-01-21T11:03:59.478Z,3.14
2023-01-21T11:06:32.364Z,3.25
2023-01-21T11:09:04.806Z,3.14
2023-01-21T11:11:40.324Z,3.40
2023-01-21T11:14:11.329Z,3.51
2023-01-21T11:16:46.525Z,3.45
2023-01-21T11:19:19.141Z,3.63
2023-01-21T11:22:02.062Z,3.53
2023-01-21T11:24:32.157Z,3.55
2023-01-21T11:27:02.618Z,3.74
2023-01-21T11:29:42.122Z,2.74
2023-01-21T11:32:24.289Z,3.32
2023-01-21T11:35:04.788Z,3.31
2023-01-21T11:37:35.463Z,3.07
2023-01-21T11:40:13.769Z,2.58
2023-01-21T11:42:49.643Z,3.00
2023-01-21T11:45:30.713Z,3.21
2023-01-21T11:48:00.348Z,2.25
2023-01-21T11:50:34.622Z,2.92
2023-01-21T11:53:17.651Z,3.15
2023-01-21T11:55:51.130Z,2.98
2023-01-21T11:58:23.563Z,2.62
2023-01-21T12:00:56.860Z,2.61
2023-01-21T12:03:31.125Z,2.65
2023-01-21T12:06:03.267Z,2.79
2023-01-21T12:08:36.741Z,2.86
2023-01-21T12:11:08.999Z,1.29
2023-01-21T12:13:49.263Z,2.68
2023-01-21T12:16:34.603Z,2.32
2023-01-21T12:19:40.213Z,1.96
2023-01-21T12:22:31.878Z,2.09
2023-01-21T12:25:26.931Z,2.21
2023-01-21T12:28:28.571Z,2.18
2023-01-21T12:31:13.163Z,1.96
2023-01-21T12:33:51.648Z,1.55
2023-01-21T12:36:31.149Z,1.77
2023-01-21T12:39:22.862Z,1.67
2023-01-21T12:42:08.916Z,1.62
2023-01-21T12:44:46.752Z,1.69
2023-01-21T12:47:33.254Z,0.94
2023-01-21T12:50:20.692Z,1.23
2023-01-21T12:53:13.667Z,1.28
2023-01-21T12:56:08.120Z,0.09
2023-01-21T12:58:43.986Z,1.13
2023-01-21T13:01:21.295Z,0.81
2023-01-21T13:04:00.886Z,0.23
2023-01-21T13:06:55.046Z,1.17
2023-01-21T13:09:35.792Z,1.00
2023-01-21T13:12:15.610Z,0.62
2023-01-21T13:14:48.844Z,0.58
2023-01-21T13:17:23.484Z,1.09
2023-01-21T13:19:52.357Z,1.02
2023-01-21T13:22:37.928Z,0.94
2023-01-21T13:25:27.345Z,0.38
2023-01-21T13:28:06.760Z,0.74
2023-01-21T13:30:45.962Z,0.60
2023-01-21T13:33:35.358Z,0.48
2023-01-21T13:36:33.454Z,0.97
2023-01-21T13:39:11.243Z,0.99
2023-01-21T13:42:00.711Z,1.03
2023-01-21T13:45:05.515Z,0.94
2023-01-21T13:48:07.145Z,1.03
2023-01-21T13:50:57.033Z,0.14
2023-01-21T13:53:51.214Z,0.88
2023-01-21T13:56:49.509Z,0.24
2023-01-21T13:59:26.391Z,1.01
2023-01-21T14:02:02.906Z,0.94
2023-01-21T14:05:04.644Z,-0.16
2023-01-21T14:07:43.756Z,-0.65
2023-01-21T14:10:23.813Z,0.98
2023-01-21T14:14:13.495Z,0.94
2023-01-21T14:17:30.448Z,0.87
2023-01-21T14:20:52.249Z,0.87
2023-01-21T14:23:47.309Z,0.29
2023-01-21T14:26:43.576Z,0.52
2023-01-21T14:29:26.396Z,-0.88
2023-01-21T14:32:06.491Z,0.35
2023-01-21T14:34:49.050Z,-0.83
2023-01-21T14:37:28.149Z,0.02
2023-01-21T14:40:12.033Z,-0.66
2023-01-21T14:42:48.154Z,0.43
2023-01-21T14:45:22.179Z,-0.89
2023-01-21T14:47:53.218Z,0.85
2023-01-21T14:50:55.855Z,0.96
2023-01-21T14:53:28.015Z,0.84
2023-01-21T14:56:18.110Z,0.60
2023-01-21T14:58:49.081Z,0.79
2023-01-21T15:01:31.555Z,0.76
2023-01-21T15:04:07.475Z,-0.66
2023-01-21T15:06:44.412Z,-0.26
2023-01-21T15:09:26.107Z,-0.66
2023-01-21T15:12:01.842Z,0.38
2023-01-21T15:14:35.393Z,-0.95
2023-01-21T15:17:04.890Z,0.84
2023-01-21T15:19:38.932Z,0.72
2023-01-21T15:22:38.955Z,0.01
2023-01-21T15:25:34.219Z,0.85
2023-01-21T15:28:40.540Z,0.88
2023-01-21T15:31:14.074Z,0.77
2023-01-21T15:33:49.592Z,0.77
2023-01-21T15:36:26.479Z,-0.35
2023-01-21T15:39:02.466Z,0.80
2023-01-21T15:41:50.012Z,0.67
2023-01-21T15:45:00.767Z,0.64
2023-01-21T15:48:08.404Z,0.93
2023-01-21T15:50:47.230Z,0.88
2023-01-21T15:53:54.173Z,0.67
2023-01-21T15:56:52.116Z,-0.57
2023-01-21T15:59:45.857Z,0.70
2023-01-21T16:02:24.609Z,0.94
2023-01-21T16:05:20.192Z,0.34
2023-01-21T16:08:04.565Z,0.28
2023-01-21T16:10:48.089Z,-0.82
2023-01-21T16:13:33.173Z,0.25
2023-01-21T16:16:17.701Z,0.30
2023-01-21T16:18:59.292Z,-0.60
2023-01-21T16:21:34.170Z,0.87
2023-01-21T16:24:09.773Z,-0.66
2023-01-21T16:26:38.696Z,0.82
2023-01-21T16:29:14.465Z,-0.10
2023-01-21T16:31:48.398Z,0.22
2023-01-21T16:34:40.364Z,-0.25
2023-01-21T16:37:12.430Z,0.88
2023-01-21T16:39:44.653Z,0.95
2023-01-21T16:42:51.143Z,-0.32
2023-01-21T16:45:39.335Z,0.92
2023-01-21T16:48:30.322Z,0.58
2023-01-21T16:51:00.211Z,0.93
2023-01-21T16:53:29.667Z,1.00
2023-01-21T16:56:00.864Z,0.23
2023-01-21T16:58:34.231Z,0.86
2023-01-21T17:04:24.264Z,0.86
2023-01-21T17:06:59.742Z,0.96
2023-01-21T17:09:47.409Z,0.97
2023-01-21T17:12:26.554Z,0.87
2023-01-21T17:15:07.815Z,0.86
2023-01-21T17:17:38.722Z,0.85
2023-01-21T17:20:08.911Z,0.85
2023-01-21T17:22:44.152Z,0.85
2023-01-21T17:25:26.626Z,0.72
2023-01-21T17:27:56.921Z,0.87
2023-01-21T17:30:33.004Z,-0.01
2023-01-21T17:33:05.855Z,0.86
2023-01-21T17:35:35.851Z,0.83
2023-01-21T17:38:06.525Z,0.88
2023-01-21T17:40:40.030Z,0.87
2023-01-21T17:43:21.399Z,0.90
2023-01-21T17:45:53.277Z,-0.87
2023-01-21T17:48:30.117Z,0.91
2023-01-21T17:51:08.009Z,0.88
2023-01-21T17:53:43.646Z,0.89
2023-01-21T17:56:14.040Z,0.88
2023-01-21T17:58:51.466Z,0.94
2023-01-21T18:01:21.527Z,0.95
2023-01-21T18:03:51.999Z,0.93
2023-01-21T18:06:26.951Z,-0.53
2023-01-21T18:08:57.372Z,0.94
2023-01-21T18:11:26.479Z,0.95
2023-01-21T18:13:56.755Z,0.95
2023-01-21T18:16:25.927Z,0.93
2023-01-21T18:18:56.565Z,0.91
2023-01-21T18:21:25.682Z,0.91
2023-01-21T18:23:54.662Z,0.91
2023-01-21T18:26:31.261Z,-0.72
2023-01-21T18:29:00.288Z,0.91
2023-01-21T18:31:29.277Z,0.92
2023-01-21T18:33:59.666Z,0.93
2023-01-21T18:36:28.756Z,0.92
2023-01-21T18:38:57.943Z,0.90
2023-01-21T18:41:27.120Z,0.90
2023-01-21T18:43:56.179Z,0.90
2023-01-21T18:46:25.209Z,0.90
2023-01-21T18:48:58.772Z,0.90
2023-01-21T18:51:28.709Z,0.88
2023-01-21T18:53:57.739Z,0.89
2023-01-21T18:56:26.731Z,0.90
2023-01-21T18:58:55.808Z,0.91
2023-01-21T19:01:29.007Z,0.89
2023-01-21T19:03:59.473Z,0.90
2023-01-21T19:06:28.640Z,0.92
2023-01-21T19:08:57.567Z,0.92
2023-01-21T19:11:26.747Z,0.90
2023-01-21T19:13:55.920Z,0.93
2023-01-21T19:16:25.120Z,0.94
2023-01-21T19:18:55.977Z,0.92
2023-01-21T19:21:26.599Z,0.94
2023-01-21T19:24:00.005Z,0.95
2023-01-21T19:26:29.342Z,0.93
2023-01-21T19:28:58.260Z,0.94
2023-01-21T19:31:33.811Z,-0.90
2023-01-21T19:34:02.913Z,0.97
2023-01-21T19:36:35.235Z,0.93
2023-01-21T19:39:04.527Z,0.96
2023-01-21T19:41:33.651Z,0.95
2023-01-21T19:44:02.298Z,0.08
2023-01-21T19:46:31.330Z,0.99
2023-01-21T19:49:01.533Z,0.97
2023-01-21T19:51:36.640Z,1.00
2023-01-21T19:54:08.546Z,1.02
2023-01-21T19:57:06.787Z,1.00
2023-01-21T19:59:34.898Z,1.01
2023-01-21T20:02:29.878Z,1.00
2023-01-21T20:04:58.826Z,1.00
2023-01-21T20:07:27.855Z,1.01
2023-01-21T20:09:58.656Z,1.00
2023-01-21T20:12:29.254Z,1.02
2023-01-21T20:15:00.182Z,1.01
2023-01-21T20:17:29.481Z,1.02
2023-01-21T20:19:58.504Z,1.00
2023-01-21T20:22:27.672Z,1.05
2023-01-21T20:24:58.381Z,1.09
2023-01-21T20:27:27.611Z,1.02
2023-01-21T20:30:14.775Z,1.04
2023-01-21T20:32:47.493Z,1.01
2023-01-21T20:35:20.781Z,1.01
2023-01-21T20:37:57.475Z,-1.08
2023-01-21T20:40:31.736Z,1.04
2023-01-21T20:43:01.605Z,1.03
2023-01-21T20:45:45.795Z,-0.21
2023-01-21T20:48:28.097Z,0.26
2023-01-21T20:51:02.240Z,1.00
2023-01-21T20:53:34.586Z,1.01
2023-01-21T20:56:20.409Z,0.51
2023-01-21T20:58:50.601Z,0.99
2023-01-21T21:01:35.072Z,-0.61
2023-01-21T21:04:04.724Z,1.00
2023-01-21T21:06:45.828Z,0.98
2023-01-21T21:09:17.685Z,1.01
2023-01-21T21:11:48.426Z,1.02
2023-01-21T21:14:30.445Z,1.03
2023-01-21T21:17:02.164Z,1.03
2023-01-21T21:19:37.284Z,1.01
2023-01-21T21:22:09.221Z,-0.76
2023-01-21T21:24:41.674Z,1.08
2023-01-21T21:27:24.281Z,1.08
2023-01-21T21:29:59.414Z,1.08
2023-01-21T21:32:35.706Z,1.05
2023-01-21T21:35:08.951Z,-0.91
2023-01-21T21:37:43.702Z,1.06
2023-01-21T21:40:20.908Z,1.05
2023-01-21T21:43:11.707Z,1.08
2023-01-21T21:46:06.305Z,1.05
2023-01-21T21:48:42.514Z,1.04
2023-01-21T21:51:14.068Z,1.06
2023-01-21T21:53:47.758Z,1.03
2023-01-21T21:56:31.113Z,-1.18
2023-01-21T21:59:03.763Z,1.03
2023-01-21T22:01:36.245Z,1.04
2023-01-21T22:04:06.129Z,1.01
2023-01-21T22:06:35.738Z,1.00
2023-01-21T22:09:06.396Z,1.02
2023-01-21T22:11:40.127Z,1.01
2023-01-21T22:14:13.945Z,0.41
2023-01-21T22:16:47.837Z,0.98
2023-01-21T22:19:17.067Z,1.04
2023-01-21T22:21:46.371Z,1.00
2023-01-21T22:24:19.196Z,1.02
2023-01-21T22:26:48.230Z,1.04
2023-01-21T22:29:18.738Z,1.03
2023-01-21T22:31:53.471Z,1.03
2023-01-21T22:34:22.381Z,1.02
2023-01-21T22:36:54.259Z,1.00
2023-01-21T22:39:23.314Z,1.04
2023-01-21T22:41:55.207Z,1.00
2023-01-21T22:44:29.710Z,1.05
2023-01-21T22:46:58.767Z,1.03
2023-01-21T22:49:31.364Z,1.07
2023-01-21T22:52:00.205Z,1.11
2023-01-21T22:54:29.043Z,1.08
2023-01-21T22:56:57.864Z,1.09
2023-01-21T22:59:27.977Z,1.10
2023-01-21T23:01:56.791Z,1.09
2023-01-21T23:04:25.678Z,1.12
2023-01-21T23:06:55.118Z,1.10
2023-01-21T23:09:24.247Z,1.16
2023-01-21T23:11:53.855Z,1.08
2023-01-21T23:14:22.844Z,1.07
2023-01-21T23:16:53.821Z,1.08
2023-01-21T23:19:22.665Z,1.07
2023-01-21T23:21:51.478Z,1.01
2023-01-21T23:24:23.544Z,1.02
2023-01-21T23:26:58.858Z,1.06
2023-01-21T23:29:42.725Z,1.04
2023-01-21T23:32:21.432Z,1.05
2023-01-21T23:38:14.079Z,1.06
2023-01-21T23:40:48.949Z,1.03
2023-01-21T23:43:27.410Z,0.26
2023-01-21T23:46:09.352Z,0.99
2023-01-21T23:48:46.362Z,1.01
2023-01-21T23:51:20.361Z,0.99
2023-01-21T23:53:50.438Z,0.99
2023-01-21T23:56:27.621Z,1.00
2023-01-21T23:59:00.206Z,1.01
